Time;durP1;ratioP1;P1;durP2;ratioP2;P2;SDS_P1;SDS_P2;PMS_P1;PMS_P2;Temp;Humidity;BMP_temperature;BMP_pressure;BME280_temperature;BME280_humidity;BME280_pressure;Samples;Min_cycle;Max_cycle;Signal;HPM_P1;HPM_P2
2021/03/15 00:01:04;;;;;;;2.17;1.10;;;;;;;;;;5052698;28;20491;-68
2021/03/15 00:03:29;;;;;;;2.42;1.40;;;;;;;;;;5036358;28;20538;-66
2021/03/15 00:05:55;;;;;;;2.63;1.35;;;;;;;;;;5062837;28;20541;-68
2021/03/15 00:08:20;;;;;;;2.70;1.20;;;;;;;;;;5064734;28;20045;-68
2021/03/15 00:10:46;;;;;;;2.67;1.38;;;;;;;;;;5052527;28;20049;-67
2021/03/15 00:13:14;;;;;;;2.45;1.25;;;;;;;;;;5059974;28;20112;-69
2021/03/15 00:15:40;;;;;;;3.28;1.30;;;;;;;;;;5067261;28;20036;-68
2021/03/15 00:18:05;;;;;;;3.15;1.35;;;;;;;;;;5068546;28;20044;-68
2021/03/15 00:20:32;;;;;;;3.50;1.52;;;;;;;;;;5071004;28;20471;-66
2021/03/15 00:22:58;;;;;;;1.75;1.10;;;;;;;;;;5072095;28;20048;-66
2021/03/15 00:25:23;;;;;;;1.42;1.00;;;;;;;;;;5042671;28;20102;-71
2021/03/15 00:27:49;;;;;;;2.22;1.10;;;;;;;;;;5054683;28;20411;-65
2021/03/15 00:30:17;;;;;;;2.55;1.08;;;;;;;;;;5076072;28;20044;-66
2021/03/15 00:32:42;;;;;;;3.22;1.20;;;;;;;;;;5059751;28;20041;-66
2021/03/15 00:35:09;;;;;;;1.48;0.85;;;;;;;;;;5027161;28;20405;-68
2021/03/15 00:37:35;;;;;;;2.17;1.00;;;;;;;;;;5043057;28;20053;-67
2021/03/15 00:40:01;;;;;;;1.70;1.00;;;;;;;;;;5060574;28;20873;-65
2021/03/15 00:42:27;;;;;;;2.28;1.02;;;;;;;;;;5059065;28;20045;-66
2021/03/15 00:44:52;;;;;;;1.63;0.80;;;;;;;;;;5040095;28;20067;-65
2021/03/15 00:47:17;;;;;;;2.40;1.05;;;;;;;;;;5055855;28;20044;-66
2021/03/15 00:49:43;;;;;;;1.77;0.90;;;;;;;;;;5072726;28;20045;-66
2021/03/15 00:52:09;;;;;;;1.85;0.95;;;;;;;;;;5074282;28;20048;-68
2021/03/15 00:54:34;;;;;;;1.58;1.00;;;;;;;;;;5053306;28;20036;-66
2021/03/15 00:57:05;;;;;;;1.60;0.95;;;;;;;;;;5066773;28;20069;-66
2021/03/15 00:59:30;;;;;;;1.55;1.05;;;;;;;;;;5054840;28;20045;-64
2021/03/15 01:01:56;;;;;;;1.88;0.98;;;;;;;;;;5044712;28;20093;-67
2021/03/15 01:04:22;;;;;;;1.70;1.00;;;;;;;;;;5060507;28;20063;-71
2021/03/15 01:07:07;;;;;;;2.25;1.15;;;;;;;;;;5072237;28;20491;-66
2021/03/15 01:09:37;;;;;;;2.28;1.10;;;;;;;;;;5075957;28;20075;-65
2021/03/15 01:12:07;;;;;;;2.90;1.00;;;;;;;;;;5068393;28;20110;-67
2021/03/15 01:14:34;;;;;;;1.60;1.08;;;;;;;;;;5076409;28;20114;-67
2021/03/15 01:17:12;;;;;;;2.85;1.25;;;;;;;;;;5067550;28;20055;-67
2021/03/15 01:19:39;;;;;;;3.30;1.27;;;;;;;;;;5070325;28;20045;-67
2021/03/15 01:22:04;;;;;;;2.20;1.25;;;;;;;;;;5054119;28;20041;-67
2021/03/15 01:24:30;;;;;;;3.00;1.45;;;;;;;;;;5069932;28;20049;-66
2021/03/15 01:26:55;;;;;;;1.85;1.10;;;;;;;;;;5055028;28;20076;-69
2021/03/15 01:29:21;;;;;;;3.17;1.52;;;;;;;;;;5073662;28;20041;-69
2021/03/15 01:31:46;;;;;;;3.55;1.52;;;;;;;;;;5058249;28;20056;-68
2021/03/15 01:34:11;;;;;;;2.55;1.50;;;;;;;;;;5053175;28;20047;-67
2021/03/15 01:36:37;;;;;;;4.03;1.50;;;;;;;;;;5054235;28;20048;-66
2021/03/15 01:39:03;;;;;;;3.63;1.80;;;;;;;;;;5059613;28;20219;-70
2021/03/15 01:41:29;;;;;;;2.97;1.63;;;;;;;;;;5075357;28;20124;-67
2021/03/15 01:43:54;;;;;;;3.40;1.70;;;;;;;;;;5075926;28;20886;-67
2021/03/15 01:46:20;;;;;;;3.72;1.67;;;;;;;;;;5039522;28;20124;-68
2021/03/15 01:48:47;;;;;;;2.08;1.58;;;;;;;;;;5054903;28;20057;-65
2021/03/15 01:51:12;;;;;;;3.17;1.85;;;;;;;;;;5040573;28;20045;-70
2021/03/15 01:53:38;;;;;;;2.50;1.45;;;;;;;;;;5039186;28;20428;-68
2021/03/15 01:56:03;;;;;;;3.15;1.80;;;;;;;;;;5053366;28;20052;-70
2021/03/15 01:58:29;;;;;;;2.92;1.70;;;;;;;;;;5068530;28;20169;-67
2021/03/15 02:00:54;;;;;;;2.55;1.70;;;;;;;;;;5039076;28;21009;-67
2021/03/15 02:03:20;;;;;;;2.38;1.75;;;;;;;;;;5055793;28;20045;-69
2021/03/15 02:05:45;;;;;;;3.40;1.83;;;;;;;;;;5089539;28;20195;-64
2021/03/15 02:08:12;;;;;;;3.33;1.90;;;;;;;;;;5065507;28;20102;-66
2021/03/15 02:10:37;;;;;;;5.00;1.90;;;;;;;;;;5068906;28;20124;-66
2021/03/15 02:13:18;;;;;;;4.28;2.15;;;;;;;;;;5051394;28;20044;-68
2021/03/15 02:16:02;;;;;;;3.03;2.05;;;;;;;;;;5052738;28;20099;-67
2021/03/15 02:18:33;;;;;;;4.72;2.15;;;;;;;;;;5071936;28;20043;-67
2021/03/15 02:21:17;;;;;;;3.05;2.10;;;;;;;;;;5070912;28;20041;-66
2021/03/15 02:24:04;;;;;;;4.47;2.15;;;;;;;;;;5069910;28;20045;-67
2021/03/15 02:26:55;;;;;;;4.53;2.30;;;;;;;;;;5067500;28;20084;-65
2021/03/15 02:29:58;;;;;;;3.58;2.00;;;;;;;;;;5071945;28;20048;-70
2021/03/15 02:32:55;;;;;;;4.07;2.42;;;;;;;;;;5029091;28;20104;-68
2021/03/15 02:35:21;;;;;;;2.58;1.90;;;;;;;;;;5027100;28;20103;-70
2021/03/15 02:37:52;;;;;;;4.57;2.05;;;;;;;;;;5012491;28;20058;-67
2021/03/15 02:40:22;;;;;;;4.00;2.03;;;;;;;;;;5007529;28;20460;-69
2021/03/15 02:42:49;;;;;;;4.75;2.63;;;;;;;;;;4997455;28;20281;-67
2021/03/15 02:45:15;;;;;;;2.60;2.00;;;;;;;;;;5013326;28;20053;-67
2021/03/15 02:47:40;;;;;;;3.00;2.10;;;;;;;;;;5010092;28;20777;-68
2021/03/15 02:50:08;;;;;;;4.35;2.30;;;;;;;;;;5014807;28;20053;-68
2021/03/15 02:52:34;;;;;;;3.13;2.05;;;;;;;;;;5028152;28;20076;-67
2021/03/15 02:55:00;;;;;;;6.00;2.60;;;;;;;;;;5013354;28;20054;-67
2021/03/15 02:57:26;;;;;;;4.25;2.40;;;;;;;;;;5000530;28;20074;-68
2021/03/15 02:59:52;;;;;;;3.67;2.17;;;;;;;;;;5016579;28;20070;-69
2021/03/15 03:02:18;;;;;;;4.07;2.28;;;;;;;;;;5003533;28;20060;-68
2021/03/15 03:04:44;;;;;;;5.05;2.45;;;;;;;;;;5050473;28;20120;-67
2021/03/15 03:07:09;;;;;;;4.47;2.47;;;;;;;;;;5037005;28;20079;-68
2021/03/15 03:09:35;;;;;;;3.85;2.55;;;;;;;;;;5070750;28;20417;-67
2021/03/15 03:12:01;;;;;;;3.15;2.30;;;;;;;;;;5064960;28;20099;-67
2021/03/15 03:14:27;;;;;;;3.60;2.35;;;;;;;;;;5022174;28;20260;-70
2021/03/15 03:16:52;;;;;;;3.22;2.08;;;;;;;;;;5055048;28;20041;-68
2021/03/15 03:19:18;;;;;;;4.25;2.20;;;;;;;;;;5052935;28;20045;-68
2021/03/15 03:21:44;;;;;;;3.17;2.33;;;;;;;;;;5050932;28;20554;-66
2021/03/15 03:24:10;;;;;;;3.88;2.05;;;;;;;;;;5037053;28;20060;-67
2021/03/15 03:26:36;;;;;;;3.53;2.05;;;;;;;;;;5052688;28;20048;-67
2021/03/15 03:29:01;;;;;;;3.83;2.20;;;;;;;;;;5072755;28;20044;-67
2021/03/15 03:31:31;;;;;;;3.13;2.15;;;;;;;;;;5040675;28;20045;-66
2021/03/15 03:33:56;;;;;;;2.80;2.03;;;;;;;;;;5069548;28;20489;-71
2021/03/15 03:36:22;;;;;;;3.28;2.05;;;;;;;;;;5050729;28;20041;-68
2021/03/15 03:38:47;;;;;;;2.90;2.08;;;;;;;;;;5060661;28;20060;-67
2021/03/15 03:41:13;;;;;;;3.05;2.20;;;;;;;;;;5053829;28;20480;-66
2021/03/15 03:43:39;;;;;;;3.47;2.10;;;;;;;;;;5068123;28;20083;-68
2021/03/15 03:46:05;;;;;;;2.50;2.17;;;;;;;;;;5054434;28;20402;-67
2021/03/15 03:48:31;;;;;;;2.80;2.10;;;;;;;;;;5069388;28;20045;-67
2021/03/15 03:50:56;;;;;;;4.15;2.47;;;;;;;;;;5036878;28;20486;-70
2021/03/15 03:53:24;;;;;;;2.92;2.15;;;;;;;;;;5068522;28;20069;-67
2021/03/15 03:56:33;;;;;;;2.03;1.50;;;;;;;;;;5069980;28;20040;-66
2021/03/15 03:58:59;;;;;;;3.53;1.60;;;;;;;;;;5038357;28;20066;-70
2021/03/15 04:01:30;;;;;;;1.67;1.20;;;;;;;;;;5039692;28;20044;-67
2021/03/15 04:03:55;;;;;;;1.23;1.13;;;;;;;;;;5058794;28;20045;-67
2021/03/15 04:06:21;;;;;;;1.38;1.00;;;;;;;;;;5041368;28;20041;-68
2021/03/15 04:08:50;;;;;;;2.03;0.80;;;;;;;;;;5074635;28;20044;-71
2021/03/15 04:11:17;;;;;;;1.00;1.00;;;;;;;;;;5074998;28;20055;-66
2021/03/15 04:13:43;;;;;;;1.10;1.00;;;;;;;;;;5038619;28;20155;-65
2021/03/15 04:16:09;;;;;;;1.13;1.02;;;;;;;;;;5071844;28;20456;-68
2021/03/15 04:18:36;;;;;;;1.20;1.10;;;;;;;;;;5054907;28;20044;-65
2021/03/15 04:21:01;;;;;;;1.55;1.10;;;;;;;;;;5054972;28;20549;-66
2021/03/15 04:23:36;;;;;;;1.42;1.10;;;;;;;;;;5056325;28;20091;-66
2021/03/15 04:26:01;;;;;;;1.42;1.23;;;;;;;;;;5058323;28;20041;-68
2021/03/15 04:28:28;;;;;;;2.05;1.25;;;;;;;;;;5055242;28;20084;-66
2021/03/15 04:30:53;;;;;;;1.63;1.23;;;;;;;;;;5054718;28;20838;-66
2021/03/15 04:33:19;;;;;;;1.95;1.50;;;;;;;;;;5044513;28;20120;-68
2021/03/15 04:35:44;;;;;;;1.35;1.20;;;;;;;;;;5091096;28;20086;-65
2021/03/15 04:38:10;;;;;;;1.40;1.30;;;;;;;;;;5056017;28;20077;-69
2021/03/15 04:40:36;;;;;;;1.40;1.20;;;;;;;;;;5038668;28;20221;-69
2021/03/15 04:43:02;;;;;;;1.85;1.20;;;;;;;;;;5054544;28;20104;-67
2021/03/15 04:45:29;;;;;;;1.67;1.10;;;;;;;;;;5065568;28;20574;-68
2021/03/15 04:47:55;;;;;;;1.55;1.33;;;;;;;;;;5064628;28;20099;-70
2021/03/15 04:50:21;;;;;;;1.77;1.30;;;;;;;;;;5055415;28;20049;-72
2021/03/15 04:52:47;;;;;;;1.65;1.30;;;;;;;;;;5060810;28;20036;-68
2021/03/15 04:55:12;;;;;;;1.70;1.60;;;;;;;;;;5054426;28;20040;-65
2021/03/15 04:57:38;;;;;;;1.75;1.55;;;;;;;;;;5054371;28;20094;-69
2021/03/15 05:00:08;;;;;;;2.00;1.63;;;;;;;;;;5039159;28;20045;-69
2021/03/15 05:02:33;;;;;;;1.52;1.42;;;;;;;;;;5071716;28;20048;-71
2021/03/15 05:04:59;;;;;;;2.00;1.60;;;;;;;;;;5072355;28;20499;-66
2021/03/15 05:07:25;;;;;;;1.73;1.60;;;;;;;;;;5052023;28;20838;-68
2021/03/15 05:09:50;;;;;;;2.53;2.00;;;;;;;;;;5065745;28;20045;-68
2021/03/15 05:12:16;;;;;;;1.90;1.70;;;;;;;;;;5071449;28;20033;-66
2021/03/15 05:14:41;;;;;;;2.15;1.95;;;;;;;;;;5071597;28;20045;-65
2021/03/15 05:17:08;;;;;;;3.50;2.50;;;;;;;;;;5038638;28;20854;-68
2021/03/15 05:19:33;;;;;;;4.13;2.95;;;;;;;;;;5070713;28;20040;-68
2021/03/15 05:21:59;;;;;;;2.55;2.30;;;;;;;;;;5053503;28;20040;-65
2021/03/15 05:24:24;;;;;;;2.92;2.33;;;;;;;;;;5053810;28;21205;-66
2021/03/15 05:26:50;;;;;;;3.58;2.58;;;;;;;;;;5045055;28;20048;-67
2021/03/15 05:29:15;;;;;;;4.07;2.75;;;;;;;;;;5066125;28;20060;-66
2021/03/15 05:31:44;;;;;;;3.17;2.55;;;;;;;;;;5068059;28;20367;-67
2021/03/15 05:34:10;;;;;;;3.08;2.28;;;;;;;;;;5071447;28;20079;-66
2021/03/15 05:36:35;;;;;;;3.28;2.63;;;;;;;;;;5052016;28;20045;-65
2021/03/15 05:39:01;;;;;;;3.53;2.75;;;;;;;;;;5040001;28;20052;-65
2021/03/15 05:41:34;;;;;;;3.80;2.92;;;;;;;;;;5076133;28;20044;-67
2021/03/15 05:44:33;;;;;;;2.83;2.20;;;;;;;;;;5040001;28;20053;-66
2021/03/15 05:47:16;;;;;;;3.40;2.30;;;;;;;;;;5069268;28;20045;-65
2021/03/15 05:49:42;;;;;;;2.70;2.33;;;;;;;;;;5069354;28;20056;-66
2021/03/15 05:52:38;;;;;;;2.97;2.10;;;;;;;;;;5073013;28;20439;-68
2021/03/15 05:55:29;;;;;;;3.70;2.30;;;;;;;;;;5070001;28;20624;-66
2021/03/15 05:58:11;;;;;;;2.78;2.40;;;;;;;;;;5071134;28;20139;-66
2021/03/15 06:00:46;;;;;;;;;;;;;;;;;;5069874;28;20051;-65
2021/03/15 06:03:46;;;;;;;2.70;2.25;;;;;;;;;;5077461;28;19955;-67
2021/03/15 06:06:15;;;;;;;3.05;2.55;;;;;;;;;;5058941;28;20053;-65
2021/03/15 06:08:43;;;;;;;3.70;2.35;;;;;;;;;;5071793;28;20060;-70
2021/03/15 06:11:12;;;;;;;3.00;2.53;;;;;;;;;;5074431;28;20044;-70
2021/03/15 06:13:38;;;;;;;3.00;2.60;;;;;;;;;;5049305;28;20048;-67
2021/03/15 06:16:05;;;;;;;3.25;2.50;;;;;;;;;;5054044;28;20493;-69
2021/03/15 06:18:30;;;;;;;2.65;2.35;;;;;;;;;;5070831;28;20045;-67
2021/03/15 06:20:56;;;;;;;3.33;2.40;;;;;;;;;;5067226;28;20052;-68
2021/03/15 06:23:22;;;;;;;4.60;2.72;;;;;;;;;;5082914;28;20078;-69
2021/03/15 06:25:48;;;;;;;3.80;2.63;;;;;;;;;;5069488;28;20060;-67
2021/03/15 06:28:17;;;;;;;3.30;2.30;;;;;;;;;;5056191;28;20407;-67
2021/03/15 06:30:43;;;;;;;3.60;2.38;;;;;;;;;;5054638;28;20060;-68
2021/03/15 06:33:09;;;;;;;2.72;2.30;;;;;;;;;;5065302;28;20139;-67
2021/03/15 06:35:40;;;;;;;2.50;2.00;;;;;;;;;;5039961;28;20757;-67
2021/03/15 06:38:05;;;;;;;2.50;1.90;;;;;;;;;;5071243;28;20045;-70
2021/03/15 06:40:32;;;;;;;2.08;1.77;;;;;;;;;;5052256;28;20771;-66
2021/03/15 06:42:58;;;;;;;2.05;1.70;;;;;;;;;;5054451;28;20040;-66
2021/03/15 06:45:23;;;;;;;2.47;1.73;;;;;;;;;;5054053;28;20052;-69
2021/03/15 06:47:49;;;;;;;3.25;2.13;;;;;;;;;;5026194;28;20049;-67
2021/03/15 06:50:16;;;;;;;2.85;1.92;;;;;;;;;;5051085;28;20045;-66
2021/03/15 06:52:54;;;;;;;1.70;1.60;;;;;;;;;;5064019;28;20052;-65
2021/03/15 06:55:35;;;;;;;2.85;2.03;;;;;;;;;;5069013;28;20870;-68
2021/03/15 06:58:01;;;;;;;2.55;1.50;;;;;;;;;;5069270;28;20558;-66
2021/03/15 07:00:30;;;;;;;1.77;1.65;;;;;;;;;;5066937;28;20036;-67
2021/03/15 07:03:03;;;;;;;1.67;1.40;;;;;;;;;;5044666;28;20128;-65
2021/03/15 07:05:30;;;;;;;2.10;1.70;;;;;;;;;;5038733;28;20055;-67
2021/03/15 07:07:57;;;;;;;1.98;1.48;;;;;;;;;;5053274;28;20036;-69
2021/03/15 07:10:26;;;;;;;1.95;1.50;;;;;;;;;;5067889;28;20055;-70
2021/03/15 07:13:08;;;;;;;2.53;1.50;;;;;;;;;;5075151;28;20055;-70
2021/03/15 07:15:34;;;;;;;1.73;1.35;;;;;;;;;;5054057;28;20118;-71
2021/03/15 07:18:32;;;;;;;1.92;1.38;;;;;;;;;;5038157;28;20122;-73
2021/03/15 07:21:03;;;;;;;1.73;1.40;;;;;;;;;;5069929;28;20061;-69
2021/03/15 07:23:42;;;;;;;1.65;1.27;;;;;;;;;;5058510;28;20052;-70
2021/03/15 07:26:12;;;;;;;2.22;1.33;;;;;;;;;;5066847;28;20053;-71
2021/03/15 07:28:37;;;;;;;2.10;1.40;;;;;;;;;;5054092;28;20094;-68
2021/03/15 07:31:20;;;;;;;2.20;1.30;;;;;;;;;;5043122;28;20060;-77
2021/03/15 07:34:08;;;;;;;1.52;1.00;;;;;;;;;;5074934;28;20967;-69
2021/03/15 07:36:54;;;;;;;2.45;1.25;;;;;;;;;;5085823;28;20131;-70
2021/03/15 07:39:20;;;;;;;2.17;1.20;;;;;;;;;;5073066;28;20052;-72
2021/03/15 07:41:47;;;;;;;2.40;1.10;;;;;;;;;;5072611;28;20051;-69
2021/03/15 07:44:25;;;;;;;2.10;1.10;;;;;;;;;;5056078;28;20040;-73
2021/03/15 07:46:52;;;;;;;2.67;1.20;;;;;;;;;;5077071;28;20059;-72
2021/03/15 07:49:31;;;;;;;3.25;1.67;;;;;;;;;;5051003;28;20089;-69
2021/03/15 07:52:01;;;;;;;2.53;1.70;;;;;;;;;;5057888;28;20064;-73
2021/03/15 07:54:31;;;;;;;2.53;1.50;;;;;;;;;;5060837;28;20060;-70
2021/03/15 07:57:29;;;;;;;1.73;1.20;;;;;;;;;;5075944;28;20580;-71
2021/03/15 07:59:58;;;;;;;2.92;1.30;;;;;;;;;;5058101;28;20091;-74
2021/03/15 08:02:27;;;;;;;2.60;1.48;;;;;;;;;;5057129;28;20063;-76
2021/03/15 08:04:54;;;;;;;2.50;1.60;;;;;;;;;;5075187;28;20095;-71
2021/03/15 08:07:21;;;;;;;2.03;1.40;;;;;;;;;;5070305;28;20067;-71
2021/03/15 08:09:52;;;;;;;3.25;1.50;;;;;;;;;;5060472;28;20047;-71
2021/03/15 08:12:17;;;;;;;2.50;1.40;;;;;;;;;;5075457;28;20105;-71
2021/03/15 08:14:46;;;;;;;2.28;1.58;;;;;;;;;;5056347;28;20458;-70
2021/03/15 08:17:16;;;;;;;2.38;1.35;;;;;;;;;;5056160;28;20123;-72
2021/03/15 08:19:42;;;;;;;2.05;1.40;;;;;;;;;;5054130;28;20079;-69
2021/03/15 08:22:07;;;;;;;2.28;1.38;;;;;;;;;;5052629;28;20095;-70
2021/03/15 08:24:37;;;;;;;2.45;1.60;;;;;;;;;;5054038;28;20911;-77
2021/03/15 08:27:03;;;;;;;3.40;1.73;;;;;;;;;;5075086;28;20131;-72
2021/03/15 08:29:29;;;;;;;2.38;1.63;;;;;;;;;;5038380;28;20612;-69
2021/03/15 08:31:54;;;;;;;2.85;1.90;;;;;;;;;;5056296;28;20041;-71
2021/03/15 08:34:19;;;;;;;3.53;1.75;;;;;;;;;;5057313;28;20118;-73
2021/03/15 08:36:45;;;;;;;2.60;1.50;;;;;;;;;;5040244;28;20102;-68
2021/03/15 08:39:40;;;;;;;2.15;1.40;;;;;;;;;;5070104;28;20064;-69
2021/03/15 08:42:06;;;;;;;1.80;1.23;;;;;;;;;;5048409;28;20033;-76
2021/03/15 08:44:52;;;;;;;2.13;1.23;;;;;;;;;;5073530;28;20463;-73
2021/03/15 08:47:50;;;;;;;2.90;1.27;;;;;;;;;;5057523;28;20041;-70
2021/03/15 08:50:34;;;;;;;2.17;1.08;;;;;;;;;;5072870;28;20090;-72
2021/03/15 08:52:59;;;;;;;1.83;1.13;;;;;;;;;;5074288;28;20045;-67
2021/03/15 08:55:47;;;;;;;2.22;1.13;;;;;;;;;;5073196;28;20139;-69
2021/03/15 08:58:34;;;;;;;2.97;1.40;;;;;;;;;;5070002;28;20045;-71
2021/03/15 09:00:59;;;;;;;2.15;1.30;;;;;;;;;;5071233;28;20068;-69
2021/03/15 09:03:48;;;;;;;3.65;1.58;;;;;;;;;;5053605;28;20051;-68
2021/03/15 09:06:13;;;;;;;2.92;1.40;;;;;;;;;;5079126;28;20486;-71
2021/03/15 09:08:58;;;;;;;1.92;1.20;;;;;;;;;;5068547;28;20044;-69
2021/03/15 09:11:38;;;;;;;2.80;1.17;;;;;;;;;;5073439;28;20628;-71
2021/03/15 09:14:13;;;;;;;3.42;1.30;;;;;;;;;;5073849;28;20045;-71
2021/03/15 09:16:45;;;;;;;2.53;1.38;;;;;;;;;;5075238;28;20052;-70
2021/03/15 09:19:20;;;;;;;2.13;0.95;;;;;;;;;;5073054;28;20051;-71
2021/03/15 09:21:49;;;;;;;2.65;1.02;;;;;;;;;;5077153;28;20048;-67
2021/03/15 09:24:40;;;;;;;2.20;0.90;;;;;;;;;;5074121;28;20131;-68
2021/03/15 09:27:05;;;;;;;1.63;0.90;;;;;;;;;;5076833;28;20526;-69
2021/03/15 09:29:31;;;;;;;1.90;0.90;;;;;;;;;;5075579;28;20052;-67
2021/03/15 09:32:02;;;;;;;3.10;1.10;;;;;;;;;;5051915;28;20131;-69
2021/03/15 09:34:28;;;;;;;3.05;1.35;;;;;;;;;;5075541;28;20871;-68
2021/03/15 09:36:58;;;;;;;2.28;1.00;;;;;;;;;;5046449;28;20064;-68
2021/03/15 09:39:25;;;;;;;3.28;1.13;;;;;;;;;;5055617;28;21054;-70
2021/03/15 09:41:51;;;;;;;1.80;0.93;;;;;;;;;;5056445;28;20044;-68
2021/03/15 09:44:32;;;;;;;2.13;1.00;;;;;;;;;;5040549;28;20111;-69
2021/03/15 09:46:59;;;;;;;3.75;1.00;;;;;;;;;;5055957;28;20096;-69
2021/03/15 09:49:37;;;;;;;14.48;10.30;;;;;;;;;;5071169;28;20056;-67
2021/03/15 09:52:21;;;;;;;10.80;6.63;;;;;;;;;;5066464;28;20055;-71
2021/03/15 09:55:13;;;;;;;12.43;7.90;;;;;;;;;;5066981;28;20497;-68
2021/03/15 09:57:38;;;;;;;14.25;7.13;;;;;;;;;;5052577;28;20052;-71
2021/03/15 10:00:16;;;;;;;10.60;7.15;;;;;;;;;;5057829;28;20057;-70
2021/03/15 10:02:52;;;;;;;8.95;6.00;;;;;;;;;;5063050;28;20574;-69
2021/03/15 10:05:36;;;;;;;7.15;4.43;;;;;;;;;;5059710;28;20049;-71
2021/03/15 10:08:21;;;;;;;8.80;5.10;;;;;;;;;;5072546;28;20123;-67
2021/03/15 10:11:05;;;;;;;2.60;1.20;;;;;;;;;;5068638;28;20085;-68
2021/03/15 10:14:02;;;;;;;9.23;4.63;;;;;;;;;;5075125;28;20049;-69
2021/03/15 10:17:02;;;;;;;3.13;1.83;;;;;;;;;;5075637;28;20111;-70
2021/03/15 10:19:44;;;;;;;3.08;1.10;;;;;;;;;;5054626;28;20072;-67
2021/03/15 10:22:12;;;;;;;2.15;1.27;;;;;;;;;;5061876;28;20515;-64
2021/03/15 10:24:39;;;;;;;3.00;1.00;;;;;;;;;;5041645;28;20191;-68
2021/03/15 10:27:07;;;;;;;2.22;1.00;;;;;;;;;;5061168;28;20527;-71
2021/03/15 10:29:33;;;;;;;3.33;1.20;;;;;;;;;;5043184;28;20051;-72
2021/03/15 10:32:01;;;;;;;2.50;1.02;;;;;;;;;;5061246;28;20572;-68
2021/03/15 10:34:26;;;;;;;1.83;1.00;;;;;;;;;;5069189;28;20499;-70
2021/03/15 10:37:00;;;;;;;2.70;1.00;;;;;;;;;;5057866;28;20135;-68
2021/03/15 10:39:35;;;;;;;3.85;1.23;;;;;;;;;;5065846;28;20045;-66
2021/03/15 10:42:01;;;;;;;3.88;1.55;;;;;;;;;;5037052;28;20053;-68
2021/03/15 10:44:31;;;;;;;2.63;0.98;;;;;;;;;;5066352;28;20056;-67
2021/03/15 10:47:03;;;;;;;3.58;1.10;;;;;;;;;;5048406;28;20075;-69
2021/03/15 10:49:34;;;;;;;1.83;0.98;;;;;;;;;;5063776;28;20103;-67
2021/03/15 10:52:30;;;;;;;1.92;0.90;;;;;;;;;;5043669;28;20754;-69
2021/03/15 10:55:13;;;;;;;3.10;0.88;;;;;;;;;;5064583;28;20040;-67
2021/03/15 10:58:00;;;;;;;2.42;0.75;;;;;;;;;;5072409;28;21010;-68
2021/03/15 11:00:28;;;;;;;1.95;0.70;;;;;;;;;;5070783;28;20474;-67
2021/03/15 11:02:55;;;;;;;4.00;0.80;;;;;;;;;;5037085;28;20056;-67
2021/03/15 11:05:21;;;;;;;4.95;0.88;;;;;;;;;;5071516;28;20048;-73
2021/03/15 11:07:47;;;;;;;2.15;0.70;;;;;;;;;;5057239;28;20041;-68
2021/03/15 11:10:21;;;;;;;2.45;0.80;;;;;;;;;;5040451;28;20047;-68
2021/03/15 11:12:54;;;;;;;2.70;1.08;;;;;;;;;;5064569;28;20053;-71
2021/03/15 11:15:32;;;;;;;3.38;0.90;;;;;;;;;;5070906;28;20040;-70
2021/03/15 11:18:01;;;;;;;3.22;1.02;;;;;;;;;;5054805;28;20910;-69
2021/03/15 11:20:36;;;;;;;1.70;0.60;;;;;;;;;;5052224;28;20040;-68
2021/03/15 11:23:02;;;;;;;1.77;0.68;;;;;;;;;;5080824;28;20048;-68
2021/03/15 11:25:28;;;;;;;1.75;0.68;;;;;;;;;;5064125;28;20498;-69
2021/03/15 11:28:17;;;;;;;2.15;1.00;;;;;;;;;;5069514;28;20041;-68
2021/03/15 11:30:55;;;;;;;1.95;0.73;;;;;;;;;;5062362;28;20052;-70
2021/03/15 11:33:25;;;;;;;1.80;0.68;;;;;;;;;;5041482;28;20045;-69
2021/03/15 11:36:16;;;;;;;3.33;0.73;;;;;;;;;;5049907;28;20044;-69
2021/03/15 11:38:56;;;;;;;2.72;0.80;;;;;;;;;;5059101;28;20045;-70
2021/03/15 11:41:34;;;;;;;2.03;0.80;;;;;;;;;;5049998;28;20075;-70
2021/03/15 11:44:01;;;;;;;2.90;0.80;;;;;;;;;;5047494;28;20190;-69
2021/03/15 11:46:27;;;;;;;2.05;0.80;;;;;;;;;;5070559;28;20045;-69
2021/03/15 11:48:52;;;;;;;1.63;0.80;;;;;;;;;;5024251;28;20051;-69
2021/03/15 11:51:56;;;;;;;1.90;0.88;;;;;;;;;;5008214;28;21020;-68
2021/03/15 11:54:57;;;;;;;2.28;0.65;;;;;;;;;;5003469;28;20056;-69
2021/03/15 11:57:29;;;;;;;3.67;0.98;;;;;;;;;;5049122;28;20057;-68
2021/03/15 11:59:55;;;;;;;2.40;0.93;;;;;;;;;;5056925;28;20049;-68
2021/03/15 12:02:26;;;;;;;2.10;0.80;;;;;;;;;;5066080;28;20051;-69
2021/03/15 12:04:57;;;;;;;3.65;0.80;;;;;;;;;;5036128;28;20057;-70
2021/03/15 12:07:23;;;;;;;1.80;0.73;;;;;;;;;;5063228;28;20556;-67
2021/03/15 12:09:53;;;;;;;2.47;0.75;;;;;;;;;;5055756;28;20040;-68
2021/03/15 12:12:18;;;;;;;2.83;0.80;;;;;;;;;;5040638;28;20059;-67
2021/03/15 12:14:57;;;;;;;2.47;0.80;;;;;;;;;;5059452;28;20041;-67
2021/03/15 12:17:23;;;;;;;3.00;0.68;;;;;;;;;;5056045;28;20049;-69
2021/03/15 12:19:52;;;;;;;1.70;0.70;;;;;;;;;;5053742;28;20543;-69
2021/03/15 12:22:46;;;;;;;3.07;0.90;;;;;;;;;;5054921;28;20110;-72
2021/03/15 12:25:13;;;;;;;1.15;0.57;;;;;;;;;;5055948;28;20139;-68
2021/03/15 12:27:48;;;;;;;2.30;0.73;;;;;;;;;;5041686;28;20041;-68
2021/03/15 12:30:15;;;;;;;1.65;0.60;;;;;;;;;;5052469;28;20537;-68
2021/03/15 12:32:41;;;;;;;1.65;0.70;;;;;;;;;;5066293;28;20044;-68
2021/03/15 12:35:06;;;;;;;2.35;0.75;;;;;;;;;;5070324;28;20487;-72
2021/03/15 12:37:34;;;;;;;2.42;0.80;;;;;;;;;;5039358;28;20045;-68
2021/03/15 12:40:01;;;;;;;1.38;0.50;;;;;;;;;;5043245;28;20091;-68
2021/03/15 12:42:28;;;;;;;2.30;0.70;;;;;;;;;;5046316;28;20040;-70
2021/03/15 12:45:02;;;;;;;0.90;0.50;;;;;;;;;;5066889;28;20130;-71
2021/03/15 12:47:34;;;;;;;1.50;0.68;;;;;;;;;;5054537;28;20084;-70
2021/03/15 12:50:00;;;;;;;1.05;0.55;;;;;;;;;;5037627;28;20132;-68
2021/03/15 12:52:29;;;;;;;1.00;0.60;;;;;;;;;;5037706;28;20048;-69
2021/03/15 12:55:05;;;;;;;2.15;0.77;;;;;;;;;;5068096;28;20095;-72
2021/03/15 12:57:31;;;;;;;2.65;0.70;;;;;;;;;;5065369;28;20501;-67
2021/03/15 13:00:04;;;;;;;1.53;0.83;;;;;;;;;;5074835;28;20048;-70
2021/03/15 13:02:38;;;;;;;0.75;0.57;;;;;;;;;;5044333;28;20045;-68
2021/03/15 13:05:05;;;;;;;2.42;0.65;;;;;;;;;;5039101;28;20052;-72
2021/03/15 13:07:36;;;;;;;0.77;0.50;;;;;;;;;;5071684;28;20045;-67
2021/03/15 13:10:13;;;;;;;1.23;0.50;;;;;;;;;;5042034;28;20055;-67
2021/03/15 13:12:46;;;;;;;0.82;0.50;;;;;;;;;;5033624;28;20580;-68
2021/03/15 13:15:16;;;;;;;1.35;0.60;;;;;;;;;;5065531;28;20045;-70
2021/03/15 13:17:51;;;;;;;1.08;0.40;;;;;;;;;;5074969;28;20050;-68
2021/03/15 13:20:20;;;;;;;1.30;0.40;;;;;;;;;;5037371;28;20402;-71
2021/03/15 13:22:50;;;;;;;0.88;0.38;;;;;;;;;;5054235;28;20540;-69
2021/03/15 13:25:24;;;;;;;1.08;0.50;;;;;;;;;;5058479;28;20514;-67
2021/03/15 13:27:50;;;;;;;0.95;0.40;;;;;;;;;;5071641;28;20119;-69
2021/03/15 13:30:17;;;;;;;0.55;0.35;;;;;;;;;;5057245;28;20153;-69
2021/03/15 13:32:44;;;;;;;1.08;0.43;;;;;;;;;;5057612;28;20040;-67
2021/03/15 13:35:11;;;;;;;0.75;0.40;;;;;;;;;;5053283;28;20049;-69
2021/03/15 13:37:40;;;;;;;1.45;0.43;;;;;;;;;;5041185;28;20048;-66
2021/03/15 13:40:14;;;;;;;1.00;0.30;;;;;;;;;;5044367;28;20085;-68
2021/03/15 13:42:47;;;;;;;2.03;0.68;;;;;;;;;;5049677;28;20098;-65
2021/03/15 13:45:32;;;;;;;1.27;0.50;;;;;;;;;;5062037;28;20040;-68
2021/03/15 13:48:08;;;;;;;1.42;0.63;;;;;;;;;;5044360;28;20048;-71
2021/03/15 13:50:34;;;;;;;2.08;0.68;;;;;;;;;;5070253;28;20510;-70
2021/03/15 13:53:00;;;;;;;1.90;0.43;;;;;;;;;;5040467;28;20051;-72
2021/03/15 13:55:28;;;;;;;1.90;0.63;;;;;;;;;;5039939;28;20044;-68
2021/03/15 13:57:53;;;;;;;1.65;0.50;;;;;;;;;;5050537;28;20045;-69
2021/03/15 14:00:39;;;;;;;1.30;0.50;;;;;;;;;;5054067;28;20049;-67
2021/03/15 14:03:27;;;;;;;1.48;0.50;;;;;;;;;;5063459;28;20049;-67
2021/03/15 14:05:53;;;;;;;1.52;0.65;;;;;;;;;;5057379;28;20048;-67
2021/03/15 14:08:18;;;;;;;2.97;0.68;;;;;;;;;;5052918;28;20051;-69
2021/03/15 14:10:49;;;;;;;0.90;0.40;;;;;;;;;;5034435;28;20522;-83
2021/03/15 14:13:19;;;;;;;2.10;0.75;;;;;;;;;;5035817;28;20088;-70
2021/03/15 14:15:50;;;;;;;1.98;0.63;;;;;;;;;;5051564;28;20929;-78
2021/03/15 14:18:15;;;;;;;2.22;0.47;;;;;;;;;;5045671;28;20056;-77
2021/03/15 14:21:01;;;;;;;0.95;0.50;;;;;;;;;;5074404;28;20054;-70
2021/03/15 14:23:26;;;;;;;1.55;0.63;;;;;;;;;;5053351;28;20510;-69
2021/03/15 14:25:54;;;;;;;0.77;0.43;;;;;;;;;;5069777;28;21038;-69
2021/03/15 14:28:33;;;;;;;2.20;0.68;;;;;;;;;;5031698;28;20052;-74
2021/03/15 14:31:17;;;;;;;1.40;0.50;;;;;;;;;;5075775;28;20543;-72
2021/03/15 14:33:48;;;;;;;2.20;0.68;;;;;;;;;;5046092;28;20052;-70
2021/03/15 14:36:15;;;;;;;1.30;0.50;;;;;;;;;;5052551;28;20478;-70
2021/03/15 14:38:48;;;;;;;2.60;0.70;;;;;;;;;;5073628;28;20135;-68
2021/03/15 14:41:20;;;;;;;2.58;0.93;;;;;;;;;;5067435;28;20048;-70
2021/03/15 14:43:47;;;;;;;1.23;0.55;;;;;;;;;;5076744;28;20064;-70
2021/03/15 14:46:21;;;;;;;1.45;0.55;;;;;;;;;;5069261;28;20510;-71
2021/03/15 14:49:05;;;;;;;2.95;0.70;;;;;;;;;;5070498;28;20059;-68
2021/03/15 14:51:36;;;;;;;2.45;0.80;;;;;;;;;;5068348;28;20041;-67
2021/03/15 14:54:05;;;;;;;2.50;0.90;;;;;;;;;;5069973;28;20107;-68
2021/03/15 14:56:34;;;;;;;2.03;0.70;;;;;;;;;;5057679;28;20054;-70
2021/03/15 14:59:03;;;;;;;1.50;0.57;;;;;;;;;;5051727;28;20036;-70
2021/03/15 15:01:32;;;;;;;1.85;0.70;;;;;;;;;;5051228;28;20115;-65
2021/03/15 15:04:06;;;;;;;2.60;0.60;;;;;;;;;;5080218;28;20844;-72
2021/03/15 15:06:33;;;;;;;2.13;0.80;;;;;;;;;;5067117;28;20048;-68